sensor_id;sensor_type;location;lat;lon;timestamp;P1;durP1;ratioP1;P2;durP2;ratioP2
51475;SDS011;37554;50.362;7.568;2022-08-19T00:01:21;10.13;;;9.32;;
51475;SDS011;37554;50.362;7.568;2022-08-19T00:03:48;10.45;;;9.35;;
51475;SDS011;37554;50.362;7.568;2022-08-19T00:06:14;10.30;;;9.48;;
51475;SDS011;37554;50.362;7.568;2022-08-19T00:08:40;10.07;;;9.27;;
51475;SDS011;37554;50.362;7.568;2022-08-19T00:11:06;10.45;;;9.45;;
51475;SDS011;37554;50.362;7.568;2022-08-19T00:13:32;9.68;;;8.95;;
51475;SDS011;37554;50.362;7.568;2022-08-19T00:15:59;10.10;;;9.20;;
51475;SDS011;37554;50.362;7.568;2022-08-19T00:18:25;10.25;;;9.55;;
51475;SDS011;37554;50.362;7.568;2022-08-19T00:20:51;9.77;;;8.88;;
51475;SDS011;37554;50.362;7.568;2022-08-19T00:23:17;9.65;;;8.93;;
51475;SDS011;37554;50.362;7.568;2022-08-19T00:25:43;9.63;;;8.73;;
51475;SDS011;37554;50.362;7.568;2022-08-19T00:28:09;9.63;;;8.82;;
51475;SDS011;37554;50.362;7.568;2022-08-19T00:30:35;9.85;;;9.05;;
51475;SDS011;37554;50.362;7.568;2022-08-19T00:33:01;9.50;;;8.70;;
51475;SDS011;37554;50.362;7.568;2022-08-19T00:35:27;9.15;;;8.45;;
51475;SDS011;37554;50.362;7.568;2022-08-19T00:37:53;9.52;;;8.75;;
51475;SDS011;37554;50.362;7.568;2022-08-19T00:40:19;9.77;;;8.82;;
51475;SDS011;37554;50.362;7.568;2022-08-19T00:42:46;10.55;;;9.52;;
51475;SDS011;37554;50.362;7.568;2022-08-19T00:45:17;9.25;;;8.55;;
51475;SDS011;37554;50.362;7.568;2022-08-19T00:47:44;9.98;;;9.10;;
51475;SDS011;37554;50.362;7.568;2022-08-19T00:50:11;9.60;;;8.80;;
51475;SDS011;37554;50.362;7.568;2022-08-19T00:52:43;10.20;;;9.18;;
51475;SDS011;37554;50.362;7.568;2022-08-19T00:55:18;9.65;;;8.85;;
51475;SDS011;37554;50.362;7.568;2022-08-19T01:00:20;8.52;;;7.93;;
51475;SDS011;37554;50.362;7.568;2022-08-19T01:02:48;9.60;;;8.80;;
51475;SDS011;37554;50.362;7.568;2022-08-19T01:05:16;9.48;;;8.70;;
51475;SDS011;37554;50.362;7.568;2022-08-19T01:07:46;10.35;;;9.50;;
51475;SDS011;37554;50.362;7.568;2022-08-19T01:10:20;9.80;;;8.98;;
51475;SDS011;37554;50.362;7.568;2022-08-19T01:12:49;9.38;;;8.57;;
51475;SDS011;37554;50.362;7.568;2022-08-19T01:15:17;9.18;;;8.50;;
51475;SDS011;37554;50.362;7.568;2022-08-19T01:17:46;9.45;;;8.65;;
51475;SDS011;37554;50.362;7.568;2022-08-19T01:20:13;9.75;;;8.95;;
51475;SDS011;37554;50.362;7.568;2022-08-19T01:22:43;9.57;;;8.85;;
51475;SDS011;37554;50.362;7.568;2022-08-19T01:25:22;9.20;;;8.50;;
51475;SDS011;37554;50.362;7.568;2022-08-19T01:27:54;9.57;;;8.70;;
51475;SDS011;37554;50.362;7.568;2022-08-19T01:30:29;9.55;;;8.60;;
51475;SDS011;37554;50.362;7.568;2022-08-19T01:32:58;9.13;;;8.43;;
51475;SDS011;37554;50.362;7.568;2022-08-19T01:35:28;9.70;;;8.90;;
51475;SDS011;37554;50.362;7.568;2022-08-19T01:37:57;8.55;;;7.95;;
51475;SDS011;37554;50.362;7.568;2022-08-19T01:40:32;9.32;;;8.63;;
51475;SDS011;37554;50.362;7.568;2022-08-19T01:43:00;8.77;;;8.07;;
51475;SDS011;37554;50.362;7.568;2022-08-19T01:45:28;8.75;;;8.15;;
51475;SDS011;37554;50.362;7.568;2022-08-19T01:47:55;9.18;;;8.57;;
51475;SDS011;37554;50.362;7.568;2022-08-19T01:50:22;9.18;;;8.43;;
51475;SDS011;37554;50.362;7.568;2022-08-19T01:52:48;9.10;;;8.40;;
51475;SDS011;37554;50.362;7.568;2022-08-19T01:55:15;8.82;;;8.13;;
51475;SDS011;37554;50.362;7.568;2022-08-19T01:57:44;9.13;;;8.40;;
51475;SDS011;37554;50.362;7.568;2022-08-19T02:00:15;9.30;;;8.50;;
51475;SDS011;37554;50.362;7.568;2022-08-19T02:02:42;9.15;;;8.45;;
51475;SDS011;37554;50.362;7.568;2022-08-19T02:05:08;8.98;;;8.18;;
51475;SDS011;37554;50.362;7.568;2022-08-19T02:07:35;9.20;;;8.48;;
51475;SDS011;37554;50.362;7.568;2022-08-19T02:10:05;8.90;;;8.15;;
51475;SDS011;37554;50.362;7.568;2022-08-19T02:12:33;8.77;;;7.95;;
51475;SDS011;37554;50.362;7.568;2022-08-19T02:14:59;8.13;;;7.55;;
51475;SDS011;37554;50.362;7.568;2022-08-19T02:17:25;8.27;;;7.68;;
51475;SDS011;37554;50.362;7.568;2022-08-19T02:19:53;8.65;;;7.95;;
51475;SDS011;37554;50.362;7.568;2022-08-19T02:22:19;8.32;;;7.72;;
51475;SDS011;37554;50.362;7.568;2022-08-19T02:24:45;8.48;;;7.65;;
51475;SDS011;37554;50.362;7.568;2022-08-19T02:27:12;8.18;;;7.57;;
51475;SDS011;37554;50.362;7.568;2022-08-19T02:29:38;7.95;;;7.28;;
51475;SDS011;37554;50.362;7.568;2022-08-19T02:32:04;8.30;;;7.57;;
51475;SDS011;37554;50.362;7.568;2022-08-19T02:34:30;8.00;;;7.50;;
51475;SDS011;37554;50.362;7.568;2022-08-19T02:36:55;7.93;;;7.32;;
51475;SDS011;37554;50.362;7.568;2022-08-19T02:39:21;8.63;;;6.70;;
51475;SDS011;37554;50.362;7.568;2022-08-19T02:41:47;8.20;;;7.50;;
51475;SDS011;37554;50.362;7.568;2022-08-19T02:44:14;7.63;;;7.07;;
51475;SDS011;37554;50.362;7.568;2022-08-19T02:46:40;7.97;;;7.30;;
51475;SDS011;37554;50.362;7.568;2022-08-19T02:49:06;8.30;;;7.60;;
51475;SDS011;37554;50.362;7.568;2022-08-19T02:51:34;7.53;;;6.93;;
51475;SDS011;37554;50.362;7.568;2022-08-19T02:54:01;8.52;;;7.82;;
51475;SDS011;37554;50.362;7.568;2022-08-19T02:56:29;7.70;;;7.10;;
51475;SDS011;37554;50.362;7.568;2022-08-19T02:58:55;8.20;;;7.50;;
51475;SDS011;37554;50.362;7.568;2022-08-19T03:01:23;7.85;;;7.22;;
51475;SDS011;37554;50.362;7.568;2022-08-19T03:03:51;7.63;;;7.03;;
51475;SDS011;37554;50.362;7.568;2022-08-19T03:06:17;7.97;;;7.32;;
51475;SDS011;37554;50.362;7.568;2022-08-19T03:08:44;7.97;;;7.32;;
51475;SDS011;37554;50.362;7.568;2022-08-19T03:11:33;8.43;;;7.65;;
51475;SDS011;37554;50.362;7.568;2022-08-19T03:13:58;7.70;;;7.10;;
51475;SDS011;37554;50.362;7.568;2022-08-19T03:16:25;8.00;;;7.30;;
51475;SDS011;37554;50.362;7.568;2022-08-19T03:18:53;8.10;;;7.50;;
51475;SDS011;37554;50.362;7.568;2022-08-19T03:21:22;7.80;;;7.20;;
51475;SDS011;37554;50.362;7.568;2022-08-19T03:23:49;7.93;;;7.22;;
51475;SDS011;37554;50.362;7.568;2022-08-19T03:26:18;7.53;;;6.93;;
51475;SDS011;37554;50.362;7.568;2022-08-19T03:28:44;8.65;;;7.40;;
51475;SDS011;37554;50.362;7.568;2022-08-19T03:31:15;7.22;;;6.72;;
51475;SDS011;37554;50.362;7.568;2022-08-19T03:33:42;8.05;;;7.45;;
51475;SDS011;37554;50.362;7.568;2022-08-19T03:36:10;7.72;;;7.22;;
51475;SDS011;37554;50.362;7.568;2022-08-19T03:38:37;8.07;;;6.90;;
51475;SDS011;37554;50.362;7.568;2022-08-19T03:41:09;7.90;;;7.30;;
51475;SDS011;37554;50.362;7.568;2022-08-19T03:43:40;8.82;;;8.13;;
51475;SDS011;37554;50.362;7.568;2022-08-19T03:46:08;7.53;;;6.93;;
51475;SDS011;37554;50.362;7.568;2022-08-19T03:48:36;8.23;;;7.43;;
51475;SDS011;37554;50.362;7.568;2022-08-19T03:51:02;8.35;;;7.65;;
51475;SDS011;37554;50.362;7.568;2022-08-19T03:53:29;7.57;;;6.97;;
51475;SDS011;37554;50.362;7.568;2022-08-19T03:55:56;7.50;;;7.00;;
51475;SDS011;37554;50.362;7.568;2022-08-19T03:58:25;7.75;;;7.15;;
51475;SDS011;37554;50.362;7.568;2022-08-19T04:00:54;7.63;;;7.03;;
51475;SDS011;37554;50.362;7.568;2022-08-19T04:03:23;7.97;;;7.35;;
51475;SDS011;37554;50.362;7.568;2022-08-19T04:05:50;7.22;;;6.68;;
51475;SDS011;37554;50.362;7.568;2022-08-19T04:08:15;7.85;;;6.93;;
51475;SDS011;37554;50.362;7.568;2022-08-19T04:10:45;8.05;;;7.45;;
51475;SDS011;37554;50.362;7.568;2022-08-19T04:13:12;8.43;;;7.70;;
51475;SDS011;37554;50.362;7.568;2022-08-19T04:15:39;7.70;;;7.20;;
51475;SDS011;37554;50.362;7.568;2022-08-19T04:18:06;7.88;;;7.18;;
51475;SDS011;37554;50.362;7.568;2022-08-19T04:20:54;7.70;;;7.18;;
51475;SDS011;37554;50.362;7.568;2022-08-19T04:23:19;7.82;;;7.22;;
51475;SDS011;37554;50.362;7.568;2022-08-19T04:25:45;7.53;;;6.82;;
51475;SDS011;37554;50.362;7.568;2022-08-19T04:28:11;8.45;;;7.65;;
51475;SDS011;37554;50.362;7.568;2022-08-19T04:30:42;9.15;;;7.30;;
51475;SDS011;37554;50.362;7.568;2022-08-19T04:33:13;7.72;;;7.13;;
51475;SDS011;37554;50.362;7.568;2022-08-19T04:35:41;7.50;;;6.90;;
51475;SDS011;37554;50.362;7.568;2022-08-19T04:38:08;7.97;;;7.38;;
51475;SDS011;37554;50.362;7.568;2022-08-19T04:40:40;8.05;;;7.35;;
51475;SDS011;37554;50.362;7.568;2022-08-19T04:43:28;8.38;;;7.57;;
51475;SDS011;37554;50.362;7.568;2022-08-19T04:45:54;8.20;;;7.50;;
51475;SDS011;37554;50.362;7.568;2022-08-19T04:48:21;8.00;;;7.40;;
51475;SDS011;37554;50.362;7.568;2022-08-19T04:50:51;7.95;;;7.35;;
51475;SDS011;37554;50.362;7.568;2022-08-19T04:53:29;7.93;;;7.13;;
51475;SDS011;37554;50.362;7.568;2022-08-19T04:55:56;8.80;;;7.55;;
51475;SDS011;37554;50.362;7.568;2022-08-19T04:58:24;8.00;;;7.30;;
51475;SDS011;37554;50.362;7.568;2022-08-19T05:00:53;8.10;;;7.50;;
51475;SDS011;37554;50.362;7.568;2022-08-19T05:03:19;8.00;;;7.38;;
51475;SDS011;37554;50.362;7.568;2022-08-19T05:05:46;8.27;;;7.43;;
51475;SDS011;37554;50.362;7.568;2022-08-19T05:08:16;7.70;;;7.10;;
51475;SDS011;37554;50.362;7.568;2022-08-19T05:10:45;7.43;;;6.90;;
51475;SDS011;37554;50.362;7.568;2022-08-19T05:13:13;7.57;;;6.82;;
51475;SDS011;37554;50.362;7.568;2022-08-19T05:15:39;8.38;;;7.70;;
51475;SDS011;37554;50.362;7.568;2022-08-19T05:18:05;8.77;;;8.07;;
51475;SDS011;37554;50.362;7.568;2022-08-19T05:20:49;7.97;;;7.35;;
51475;SDS011;37554;50.362;7.568;2022-08-19T05:23:33;8.30;;;7.63;;
51475;SDS011;37554;50.362;7.568;2022-08-19T05:25:59;8.30;;;7.60;;
51475;SDS011;37554;50.362;7.568;2022-08-19T05:28:24;7.97;;;7.35;;
51475;SDS011;37554;50.362;7.568;2022-08-19T05:30:50;8.40;;;7.53;;
51475;SDS011;37554;50.362;7.568;2022-08-19T05:33:16;8.60;;;7.80;;
51475;SDS011;37554;50.362;7.568;2022-08-19T05:35:43;8.15;;;7.45;;
51475;SDS011;37554;50.362;7.568;2022-08-19T05:38:09;7.40;;;6.90;;
51475;SDS011;37554;50.362;7.568;2022-08-19T05:40:36;8.85;;;7.97;;
51475;SDS011;37554;50.362;7.568;2022-08-19T05:43:04;8.65;;;7.95;;
51475;SDS011;37554;50.362;7.568;2022-08-19T05:45:31;9.95;;;9.18;;
51475;SDS011;37554;50.362;7.568;2022-08-19T05:47:57;11.13;;;10.13;;
51475;SDS011;37554;50.362;7.568;2022-08-19T05:50:23;10.50;;;9.57;;
51475;SDS011;37554;50.362;7.568;2022-08-19T05:52:51;11.63;;;10.52;;
51475;SDS011;37554;50.362;7.568;2022-08-19T05:55:17;14.90;;;9.48;;
51475;SDS011;37554;50.362;7.568;2022-08-19T05:57:45;11.13;;;9.98;;
51475;SDS011;37554;50.362;7.568;2022-08-19T06:00:11;11.95;;;10.93;;
51475;SDS011;37554;50.362;7.568;2022-08-19T06:02:37;11.77;;;10.77;;
51475;SDS011;37554;50.362;7.568;2022-08-19T06:05:04;12.10;;;10.90;;
51475;SDS011;37554;50.362;7.568;2022-08-19T06:07:33;11.02;;;10.10;;
51475;SDS011;37554;50.362;7.568;2022-08-19T06:10:00;11.82;;;10.63;;
51475;SDS011;37554;50.362;7.568;2022-08-19T06:12:29;11.45;;;10.30;;
51475;SDS011;37554;50.362;7.568;2022-08-19T06:14:58;12.05;;;10.95;;
51475;SDS011;37554;50.362;7.568;2022-08-19T06:17:25;11.50;;;10.60;;
51475;SDS011;37554;50.362;7.568;2022-08-19T06:19:51;12.23;;;11.02;;
51475;SDS011;37554;50.362;7.568;2022-08-19T06:22:17;11.82;;;10.30;;
51475;SDS011;37554;50.362;7.568;2022-08-19T06:24:43;11.00;;;10.02;;
51475;SDS011;37554;50.362;7.568;2022-08-19T06:27:08;13.13;;;10.70;;
51475;SDS011;37554;50.362;7.568;2022-08-19T06:29:34;11.00;;;9.90;;
51475;SDS011;37554;50.362;7.568;2022-08-19T06:32:02;13.07;;;10.25;;
51475;SDS011;37554;50.362;7.568;2022-08-19T06:34:29;11.68;;;10.57;;
51475;SDS011;37554;50.362;7.568;2022-08-19T06:36:59;12.60;;;10.93;;
51475;SDS011;37554;50.362;7.568;2022-08-19T06:39:27;12.38;;;11.27;;
51475;SDS011;37554;50.362;7.568;2022-08-19T06:41:56;14.13;;;11.40;;
51475;SDS011;37554;50.362;7.568;2022-08-19T06:44:24;12.90;;;11.68;;
51475;SDS011;37554;50.362;7.568;2022-08-19T06:46:51;11.90;;;10.68;;
51475;SDS011;37554;50.362;7.568;2022-08-19T06:49:18;11.52;;;10.63;;
51475;SDS011;37554;50.362;7.568;2022-08-19T06:51:45;11.45;;;10.20;;
51475;SDS011;37554;50.362;7.568;2022-08-19T06:54:12;11.80;;;10.70;;
51475;SDS011;37554;50.362;7.568;2022-08-19T06:56:38;12.35;;;10.88;;
51475;SDS011;37554;50.362;7.568;2022-08-19T06:59:08;12.25;;;10.95;;
51475;SDS011;37554;50.362;7.568;2022-08-19T07:01:40;11.82;;;10.63;;
51475;SDS011;37554;50.362;7.568;2022-08-19T07:04:10;12.85;;;11.60;;
51475;SDS011;37554;50.362;7.568;2022-08-19T07:06:36;13.32;;;11.68;;
51475;SDS011;37554;50.362;7.568;2022-08-19T07:09:03;14.32;;;10.98;;
51475;SDS011;37554;50.362;7.568;2022-08-19T07:11:30;12.85;;;11.52;;
51475;SDS011;37554;50.362;7.568;2022-08-19T07:13:56;11.95;;;10.88;;
51475;SDS011;37554;50.362;7.568;2022-08-19T07:16:22;12.38;;;11.35;;
51475;SDS011;37554;50.362;7.568;2022-08-19T07:18:48;13.55;;;12.23;;
51475;SDS011;37554;50.362;7.568;2022-08-19T07:21:19;11.35;;;10.35;;
51475;SDS011;37554;50.362;7.568;2022-08-19T07:23:47;11.90;;;10.70;;
51475;SDS011;37554;50.362;7.568;2022-08-19T07:26:22;12.55;;;11.18;;
51475;SDS011;37554;50.362;7.568;2022-08-19T07:28:50;13.30;;;11.77;;
51475;SDS011;37554;50.362;7.568;2022-08-19T07:31:18;12.73;;;11.50;;
51475;SDS011;37554;50.362;7.568;2022-08-19T07:33:47;13.38;;;11.27;;
51475;SDS011;37554;50.362;7.568;2022-08-19T07:36:15;14.55;;;10.88;;
51475;SDS011;37554;50.362;7.568;2022-08-19T07:38:44;15.13;;;10.85;;
51475;SDS011;37554;50.362;7.568;2022-08-19T07:41:14;12.75;;;10.73;;
51475;SDS011;37554;50.362;7.568;2022-08-19T07:43:44;17.38;;;12.35;;
51475;SDS011;37554;50.362;7.568;2022-08-19T07:46:10;15.37;;;13.77;;
51475;SDS011;37554;50.362;7.568;2022-08-19T07:48:38;16.38;;;14.85;;
51475;SDS011;37554;50.362;7.568;2022-08-19T07:51:05;19.48;;;17.35;;
51475;SDS011;37554;50.362;7.568;2022-08-19T07:53:33;20.15;;;16.08;;
51475;SDS011;37554;50.362;7.568;2022-08-19T07:56:01;20.20;;;16.33;;
51475;SDS011;37554;50.362;7.568;2022-08-19T07:58:29;25.38;;;20.42;;
51475;SDS011;37554;50.362;7.568;2022-08-19T08:01:00;21.10;;;18.33;;
51475;SDS011;37554;50.362;7.568;2022-08-19T08:03:27;19.52;;;17.10;;
51475;SDS011;37554;50.362;7.568;2022-08-19T08:06:12;19.08;;;16.17;;
51475;SDS011;37554;50.362;7.568;2022-08-19T08:08:57;17.60;;;15.88;;
51475;SDS011;37554;50.362;7.568;2022-08-19T08:11:36;16.45;;;14.48;;
51475;SDS011;37554;50.362;7.568;2022-08-19T08:14:02;14.05;;;11.27;;
51475;SDS011;37554;50.362;7.568;2022-08-19T08:16:29;11.30;;;9.98;;
51475;SDS011;37554;50.362;7.568;2022-08-19T08:19:00;10.75;;;9.75;;
51475;SDS011;37554;50.362;7.568;2022-08-19T08:21:26;11.35;;;9.52;;
51475;SDS011;37554;50.362;7.568;2022-08-19T08:23:51;10.15;;;9.10;;
51475;SDS011;37554;50.362;7.568;2022-08-19T08:26:18;10.30;;;9.27;;
51475;SDS011;37554;50.362;7.568;2022-08-19T08:28:43;9.82;;;8.82;;
51475;SDS011;37554;50.362;7.568;2022-08-19T08:31:10;12.00;;;9.32;;
51475;SDS011;37554;50.362;7.568;2022-08-19T08:33:36;9.43;;;8.52;;
51475;SDS011;37554;50.362;7.568;2022-08-19T08:36:04;9.75;;;8.95;;
51475;SDS011;37554;50.362;7.568;2022-08-19T08:38:30;9.52;;;8.68;;
51475;SDS011;37554;50.362;7.568;2022-08-19T08:40:58;15.73;;;14.20;;
51475;SDS011;37554;50.362;7.568;2022-08-19T08:43:35;15.88;;;14.30;;
51475;SDS011;37554;50.362;7.568;2022-08-19T08:46:05;16.45;;;14.52;;
51475;SDS011;37554;50.362;7.568;2022-08-19T08:51:03;18.08;;;13.93;;
51475;SDS011;37554;50.362;7.568;2022-08-19T08:53:35;15.27;;;13.70;;
51475;SDS011;37554;50.362;7.568;2022-08-19T08:56:02;13.57;;;12.18;;
51475;SDS011;37554;50.362;7.568;2022-08-19T08:58:36;16.00;;;12.55;;
51475;SDS011;37554;50.362;7.568;2022-08-19T09:01:12;16.27;;;12.68;;
51475;SDS011;37554;50.362;7.568;2022-08-19T09:03:39;15.45;;;11.88;;
51475;SDS011;37554;50.362;7.568;2022-08-19T09:06:12;14.13;;;12.40;;
51475;SDS011;37554;50.362;7.568;2022-08-19T09:08:48;14.13;;;12.68;;
51475;SDS011;37554;50.362;7.568;2022-08-19T09:12:00;15.05;;;11.27;;
51475;SDS011;37554;50.362;7.568;2022-08-19T09:17:10;11.73;;;10.52;;
51475;SDS011;37554;50.362;7.568;2022-08-19T09:19:54;15.02;;;10.50;;
51475;SDS011;37554;50.362;7.568;2022-08-19T09:22:31;10.55;;;9.27;;
51475;SDS011;37554;50.362;7.568;2022-08-19T09:24:57;11.43;;;9.98;;
51475;SDS011;37554;50.362;7.568;2022-08-19T09:27:23;9.85;;;8.85;;
51475;SDS011;37554;50.362;7.568;2022-08-19T09:29:51;10.38;;;8.40;;
51475;SDS011;37554;50.362;7.568;2022-08-19T09:32:19;8.82;;;7.95;;
51475;SDS011;37554;50.362;7.568;2022-08-19T09:34:45;7.88;;;7.07;;
51475;SDS011;37554;50.362;7.568;2022-08-19T09:37:11;8.80;;;6.75;;
51475;SDS011;37554;50.362;7.568;2022-08-19T09:39:37;8.68;;;6.90;;
51475;SDS011;37554;50.362;7.568;2022-08-19T09:42:05;9.20;;;6.85;;
51475;SDS011;37554;50.362;7.568;2022-08-19T09:44:36;8.35;;;6.57;;
51475;SDS011;37554;50.362;7.568;2022-08-19T09:47:03;6.72;;;6.13;;
51475;SDS011;37554;50.362;7.568;2022-08-19T09:49:29;7.47;;;6.45;;
51475;SDS011;37554;50.362;7.568;2022-08-19T09:51:56;6.63;;;5.93;;
51475;SDS011;37554;50.362;7.568;2022-08-19T09:54:22;7.70;;;5.53;;
51475;SDS011;37554;50.362;7.568;2022-08-19T09:56:48;6.53;;;5.15;;
51475;SDS011;37554;50.362;7.568;2022-08-19T09:59:15;5.50;;;5.05;;
51475;SDS011;37554;50.362;7.568;2022-08-19T10:01:40;5.22;;;4.72;;
51475;SDS011;37554;50.362;7.568;2022-08-19T10:04:06;9.90;;;4.82;;
51475;SDS011;37554;50.362;7.568;2022-08-19T10:06:36;5.18;;;4.72;;
51475;SDS011;37554;50.362;7.568;2022-08-19T10:09:04;9.60;;;5.25;;
51475;SDS011;37554;50.362;7.568;2022-08-19T10:11:31;6.50;;;5.90;;
51475;SDS011;37554;50.362;7.568;2022-08-19T10:13:57;6.28;;;5.57;;
51475;SDS011;37554;50.362;7.568;2022-08-19T10:16:24;6.45;;;4.65;;
51475;SDS011;37554;50.362;7.568;2022-08-19T10:18:50;5.30;;;4.80;;
51475;SDS011;37554;50.362;7.568;2022-08-19T10:21:31;7.88;;;4.80;;
51475;SDS011;37554;50.362;7.568;2022-08-19T10:24:00;6.13;;;4.33;;
51475;SDS011;37554;50.362;7.568;2022-08-19T10:26:29;5.78;;;5.18;;
51475;SDS011;37554;50.362;7.568;2022-08-19T10:28:57;5.53;;;4.55;;
51475;SDS011;37554;50.362;7.568;2022-08-19T10:31:25;4.80;;;4.30;;
51475;SDS011;37554;50.362;7.568;2022-08-19T10:33:53;6.80;;;4.88;;
51475;SDS011;37554;50.362;7.568;2022-08-19T10:36:23;4.47;;;4.07;;
51475;SDS011;37554;50.362;7.568;2022-08-19T10:38:51;5.25;;;4.55;;
51475;SDS011;37554;50.362;7.568;2022-08-19T10:41:23;4.88;;;4.45;;
51475;SDS011;37554;50.362;7.568;2022-08-19T10:43:52;4.45;;;4.15;;
51475;SDS011;37554;50.362;7.568;2022-08-19T10:46:20;7.60;;;4.45;;
51475;SDS011;37554;50.362;7.568;2022-08-19T10:48:48;6.20;;;4.32;;
51475;SDS011;37554;50.362;7.568;2022-08-19T10:51:14;4.18;;;3.78;;
51475;SDS011;37554;50.362;7.568;2022-08-19T10:53:59;4.45;;;4.07;;
51475;SDS011;37554;50.362;7.568;2022-08-19T10:56:25;4.20;;;3.80;;
51475;SDS011;37554;50.362;7.568;2022-08-19T10:59:10;6.03;;;4.55;;
51475;SDS011;37554;50.362;7.568;2022-08-19T11:01:38;5.05;;;4.55;;
51475;SDS011;37554;50.362;7.568;2022-08-19T11:04:05;4.57;;;4.15;;
51475;SDS011;37554;50.362;7.568;2022-08-19T11:06:35;5.10;;;4.00;;
51475;SDS011;37554;50.362;7.568;2022-08-19T11:09:02;5.35;;;3.65;;
51475;SDS011;37554;50.362;7.568;2022-08-19T11:11:28;4.43;;;3.55;;
51475;SDS011;37554;50.362;7.568;2022-08-19T11:13:54;8.27;;;4.50;;
51475;SDS011;37554;50.362;7.568;2022-08-19T11:16:21;3.58;;;3.28;;
51475;SDS011;37554;50.362;7.568;2022-08-19T11:18:49;3.88;;;3.47;;
51475;SDS011;37554;50.362;7.568;2022-08-19T11:21:18;3.55;;;3.25;;
51475;SDS011;37554;50.362;7.568;2022-08-19T11:23:46;4.03;;;3.53;;
51475;SDS011;37554;50.362;7.568;2022-08-19T11:26:14;4.55;;;3.88;;
51475;SDS011;37554;50.362;7.568;2022-08-19T11:28:40;3.35;;;3.00;;
51475;SDS011;37554;50.362;7.568;2022-08-19T11:31:13;3.42;;;3.05;;
51475;SDS011;37554;50.362;7.568;2022-08-19T11:33:41;3.63;;;3.33;;
51475;SDS011;37554;50.362;7.568;2022-08-19T11:36:08;4.22;;;3.50;;
51475;SDS011;37554;50.362;7.568;2022-08-19T11:38:34;3.78;;;3.40;;
51475;SDS011;37554;50.362;7.568;2022-08-19T11:41:01;4.25;;;3.50;;
51475;SDS011;37554;50.362;7.568;2022-08-19T11:43:31;3.95;;;3.05;;
51475;SDS011;37554;50.362;7.568;2022-08-19T11:45:57;3.70;;;3.40;;
51475;SDS011;37554;50.362;7.568;2022-08-19T11:48:24;6.60;;;3.47;;
51475;SDS011;37554;50.362;7.568;2022-08-19T11:50:51;3.15;;;2.83;;
51475;SDS011;37554;50.362;7.568;2022-08-19T11:53:21;3.65;;;3.05;;
51475;SDS011;37554;50.362;7.568;2022-08-19T11:55:48;4.00;;;2.63;;
51475;SDS011;37554;50.362;7.568;2022-08-19T11:58:14;3.42;;;3.13;;
51475;SDS011;37554;50.362;7.568;2022-08-19T12:00:42;2.67;;;2.38;;
51475;SDS011;37554;50.362;7.568;2022-08-19T12:03:10;3.22;;;2.40;;
51475;SDS011;37554;50.362;7.568;2022-08-19T12:05:37;3.58;;;2.58;;
51475;SDS011;37554;50.362;7.568;2022-08-19T12:08:05;3.00;;;2.67;;
51475;SDS011;37554;50.362;7.568;2022-08-19T12:10:31;4.78;;;2.78;;
51475;SDS011;37554;50.362;7.568;2022-08-19T12:12:57;2.85;;;2.65;;
51475;SDS011;37554;50.362;7.568;2022-08-19T12:15:23;9.95;;;3.50;;
51475;SDS011;37554;50.362;7.568;2022-08-19T12:17:49;4.18;;;3.17;;
51475;SDS011;37554;50.362;7.568;2022-08-19T12:20:14;4.07;;;2.90;;
51475;SDS011;37554;50.362;7.568;2022-08-19T12:22:42;4.80;;;3.20;;
51475;SDS011;37554;50.362;7.568;2022-08-19T12:25:11;5.68;;;2.90;;
51475;SDS011;37554;50.362;7.568;2022-08-19T12:27:37;6.47;;;3.00;;
51475;SDS011;37554;50.362;7.568;2022-08-19T12:30:04;3.33;;;3.03;;
51475;SDS011;37554;50.362;7.568;2022-08-19T12:32:30;3.42;;;3.13;;
51475;SDS011;37554;50.362;7.568;2022-08-19T12:34:56;4.88;;;3.35;;
51475;SDS011;37554;50.362;7.568;2022-08-19T12:37:22;3.10;;;2.90;;
51475;SDS011;37554;50.362;7.568;2022-08-19T12:39:48;3.38;;;3.08;;
51475;SDS011;37554;50.362;7.568;2022-08-19T12:42:14;3.25;;;3.05;;
51475;SDS011;37554;50.362;7.568;2022-08-19T12:44:41;4.07;;;3.50;;
51475;SDS011;37554;50.362;7.568;2022-08-19T12:47:08;4.45;;;3.95;;
51475;SDS011;37554;50.362;7.568;2022-08-19T12:49:35;4.65;;;3.40;;
51475;SDS011;37554;50.362;7.568;2022-08-19T12:52:02;3.55;;;3.25;;
51475;SDS011;37554;50.362;7.568;2022-08-19T12:54:29;4.05;;;3.67;;
51475;SDS011;37554;50.362;7.568;2022-08-19T12:56:56;3.65;;;3.25;;
51475;SDS011;37554;50.362;7.568;2022-08-19T12:59:22;5.43;;;3.78;;
51475;SDS011;37554;50.362;7.568;2022-08-19T13:01:48;3.78;;;3.38;;
51475;SDS011;37554;50.362;7.568;2022-08-19T13:04:14;4.43;;;3.17;;
51475;SDS011;37554;50.362;7.568;2022-08-19T13:06:40;3.47;;;3.17;;
51475;SDS011;37554;50.362;7.568;2022-08-19T13:09:07;4.75;;;3.40;;
51475;SDS011;37554;50.362;7.568;2022-08-19T13:11:33;3.45;;;3.15;;
51475;SDS011;37554;50.362;7.568;2022-08-19T13:13:59;3.80;;;3.50;;
51475;SDS011;37554;50.362;7.568;2022-08-19T13:16:26;7.10;;;4.10;;
51475;SDS011;37554;50.362;7.568;2022-08-19T13:18:53;4.15;;;3.83;;
51475;SDS011;37554;50.362;7.568;2022-08-19T13:21:21;3.60;;;3.30;;
51475;SDS011;37554;50.362;7.568;2022-08-19T13:23:49;3.42;;;3.22;;
51475;SDS011;37554;50.362;7.568;2022-08-19T13:26:16;3.75;;;3.20;;
51475;SDS011;37554;50.362;7.568;2022-08-19T13:28:42;3.33;;;2.92;;
51475;SDS011;37554;50.362;7.568;2022-08-19T13:31:29;6.60;;;3.50;;
51475;SDS011;37554;50.362;7.568;2022-08-19T13:34:18;4.95;;;3.42;;
51475;SDS011;37554;50.362;7.568;2022-08-19T13:36:52;5.43;;;3.60;;
51475;SDS011;37554;50.362;7.568;2022-08-19T13:39:18;5.75;;;3.00;;
51475;SDS011;37554;50.362;7.568;2022-08-19T13:41:44;4.40;;;3.20;;
51475;SDS011;37554;50.362;7.568;2022-08-19T13:44:18;4.07;;;2.90;;
51475;SDS011;37554;50.362;7.568;2022-08-19T13:46:44;3.33;;;3.03;;
51475;SDS011;37554;50.362;7.568;2022-08-19T13:49:18;4.40;;;2.80;;
51475;SDS011;37554;50.362;7.568;2022-08-19T13:51:45;3.35;;;2.90;;
51475;SDS011;37554;50.362;7.568;2022-08-19T13:54:11;5.28;;;2.90;;
51475;SDS011;37554;50.362;7.568;2022-08-19T13:56:44;3.22;;;2.92;;
51475;SDS011;37554;50.362;7.568;2022-08-19T13:59:10;3.40;;;3.10;;
51475;SDS011;37554;50.362;7.568;2022-08-19T14:01:36;3.03;;;2.83;;
51475;SDS011;37554;50.362;7.568;2022-08-19T14:04:03;3.00;;;2.70;;
51475;SDS011;37554;50.362;7.568;2022-08-19T14:06:29;3.33;;;3.00;;
51475;SDS011;37554;50.362;7.568;2022-08-19T14:08:54;3.03;;;2.83;;
51475;SDS011;37554;50.362;7.568;2022-08-19T14:11:20;6.93;;;2.95;;
51475;SDS011;37554;50.362;7.568;2022-08-19T14:13:47;3.08;;;2.88;;
51475;SDS011;37554;50.362;7.568;2022-08-19T14:16:14;4.15;;;2.95;;
51475;SDS011;37554;50.362;7.568;2022-08-19T14:18:40;4.28;;;3.35;;
51475;SDS011;37554;50.362;7.568;2022-08-19T14:21:06;4.10;;;3.38;;
51475;SDS011;37554;50.362;7.568;2022-08-19T14:23:33;3.83;;;3.53;;
51475;SDS011;37554;50.362;7.568;2022-08-19T14:26:09;3.92;;;3.47;;
51475;SDS011;37554;50.362;7.568;2022-08-19T14:28:38;3.83;;;3.53;;
51475;SDS011;37554;50.362;7.568;2022-08-19T14:31:08;4.90;;;3.60;;
51475;SDS011;37554;50.362;7.568;2022-08-19T14:33:35;3.47;;;3.00;;
51475;SDS011;37554;50.362;7.568;2022-08-19T14:36:01;3.38;;;3.17;;
51475;SDS011;37554;50.362;7.568;2022-08-19T14:38:27;4.35;;;3.95;;
51475;SDS011;37554;50.362;7.568;2022-08-19T14:41:05;4.25;;;3.80;;
51475;SDS011;37554;50.362;7.568;2022-08-19T14:43:37;4.10;;;3.70;;
51475;SDS011;37554;50.362;7.568;2022-08-19T14:46:03;7.38;;;4.10;;
51475;SDS011;37554;50.362;7.568;2022-08-19T14:48:29;4.20;;;3.72;;
51475;SDS011;37554;50.362;7.568;2022-08-19T14:50:55;6.00;;;3.92;;
51475;SDS011;37554;50.362;7.568;2022-08-19T14:53:21;9.32;;;4.40;;
51475;SDS011;37554;50.362;7.568;2022-08-19T14:55:46;4.18;;;3.88;;